Rain From: 21-07-2018 02:00 Until: 16:00 warning for: Rain Level: Yellow info button
suomi:
Sadevaroitus: Aamuyöstä alkaen voi sataa rankasti, yli 20 mm tunnissa.

svenska:
Nederbördsvarning: Från och med efternatten kan det förekomma synnerligen riklig nederbörd, mer än 20 mm i timmen.

english:
Heavy rain warning: From the early morning on heavy rain of more than 20 mm per hour can be expected. 

Forest fire From: 20-07-2018 23:00 Until: 21-07-2018 11:00 warning for: Forest fire Level: Yellow info button
suomi:
Metsäpalovaroitus on voimassa.

svenska:
Varning för skogsbrand gäller.

english:
A forest fire warning is in force. 


Thunder radar more information blitzortung!


Löydät sääaseman tiedot myös:

European Weather Network

Finland Weather Exchange

Weather Underground

AWEKAS



Weather Underground säähistoriasivu

Päivittäin yhteenveto Heinäkuu 14, 2017 Yksiköt:  Englantilaiset    Metriset   Molemmat
« Edellinen Päivä
Seuraava Päivä »
Päivittäin Viikoittain Kuukausittain Vuosittain Mukautettu
  Korkea: Matala: Keskiarvo:
Lämpötila: TemperatureC °F 10.8 °F 12.3 °F
Kastepiste: DewpointC °F 8.3 °F 9.3 °F
Kosteus: Humidity % 66 % 82 %
Tuulen nopeus: WindSpeedKMH mph 0.0 mph 4.4 mph
Tuulenpuuska: WindSpeedGustKMH mph - -
Tuuli:- - SSW
Ilmanpaine: PressurehPa in 1001.9 in -
Sade: 0.5 in    
Historical Graphs
 
 
Taulukkotiedot Heinäkuu 14, 2017
Aika Lämpötila Kastepiste Ilmanpaine Tuuli Tuulen nopeus Tuulenpuuska Kosteus Sademäärä (tunneittain)
TemperatureC °F DewpointC °F PressurehPa in Calm     Humidity % HourlyPrecipMM in
00:00 11.8 °F 9.3 °F 1002.3 in SSE 1.6 mph 9.7 mph 85 % 0.0 in
00:15 11.8 °F 9.5 °F 1002.3 in South 1.6 mph 9.7 mph 86 % 0.0 in
00:30 11.7 °F 9.6 °F 1002.3 in South 3.2 mph 11.3 mph 87 % 0.0 in
00:45 11.4 °F 9.7 °F 1002.3 in South 3.2 mph 11.3 mph 89 % 0.0 in
01:00 11.3 °F 9.8 °F 1002.3 in South 3.2 mph 9.7 mph 90 % 0.0 in
01:15 11.3 °F 9.9 °F 1002.3 in SSW 1.6 mph 9.7 mph 91 % 0.0 in
01:30 11.2 °F 9.9 °F 1002.3 in SSW 1.6 mph 12.9 mph 92 % 0.0 in
01:45 11.1 °F 10.0 °F 1002.3 in SSW 1.6 mph 11.3 mph 93 % 0.0 in
02:00 11.1 °F 10.1 °F 1002.3 in SSW 1.6 mph 4.8 mph 94 % 0.0 in
02:15 11.1 °F 10.2 °F 1002.3 in Calm   3.2 mph 94 % 0.0 in
02:30 11.2 °F 10.2 °F 1002.3 in Calm   3.2 mph 94 % 0.0 in
02:45 11.3 °F 10.5 °F 1002.3 in Calm   4.8 mph 95 % 0.0 in
03:00 11.3 °F 10.5 °F 1002.3 in Calm   3.2 mph 95 % 0.0 in
03:15 11.3 °F 10.6 °F 1002.3 in Calm   3.2 mph 95 % 0.0 in
03:30 11.4 °F 10.5 °F 1002.3 in SSW 1.6 mph 11.3 mph 94 % 0.0 in
03:45 11.4 °F 10.5 °F 1001.9 in Calm   3.2 mph 94 % 0.0 in
04:00 11.4 °F 10.5 °F 1001.9 in Calm   4.8 mph 94 % 0.0 in
04:15 11.4 °F 10.5 °F 1002.3 in SSW 1.6 mph 9.7 mph 94 % 0.0 in
04:30 11.3 °F 10.2 °F 1002.3 in SSW 1.6 mph 11.3 mph 93 % 0.0 in
04:45 11.2 °F 10.1 °F 1002.3 in SSW 1.6 mph 9.7 mph 93 % 0.0 in
05:00 11.2 °F 10.1 °F 1002.3 in SSW 1.6 mph 11.3 mph 93 % 0.0 in
05:15 11.2 °F 10.1 °F 1002.3 in SW 1.6 mph 9.7 mph 93 % 0.0 in
05:30 11.1 °F 10.0 °F 1002.3 in SW 3.2 mph 8.0 mph 93 % 0.0 in
05:45 10.9 °F 9.9 °F 1002.3 in Calm   8.0 mph 93 % 0.0 in
06:00 10.8 °F 9.7 °F 1002.3 in SSW 1.6 mph 8.0 mph 93 % 0.0 in
06:15 10.8 °F 9.7 °F 1002.6 in SW 1.6 mph 8.0 mph 93 % 0.0 in
06:30 10.8 °F 9.7 °F 1002.3 in SSW 3.2 mph 12.9 mph 93 % 0.0 in
06:45 10.9 °F 9.6 °F 1002.3 in SSW 1.6 mph 12.9 mph 92 % 0.0 in
07:00 10.9 °F 9.7 °F 1002.3 in SW 3.2 mph 9.7 mph 92 % 0.0 in
07:15 11.0 °F 9.7 °F 1002.3 in SSW 3.2 mph 8.0 mph 92 % 0.0 in
07:30 11.1 °F 9.9 °F 1002.3 in SSW 4.8 mph 11.3 mph 92 % 0.0 in
07:45 11.6 °F 10.0 °F 1002.3 in South 1.6 mph 9.7 mph 90 % 0.0 in
08:00 11.8 °F 9.4 °F 1002.3 in SSW 4.8 mph 19.3 mph 85 % 0.0 in
08:15 11.4 °F 8.8 °F 1002.3 in SSW 6.4 mph 12.9 mph 84 % 0.0 in
08:30 11.4 °F 9.0 °F 1002.3 in SSW 3.2 mph 14.5 mph 85 % 0.0 in
08:45 11.7 °F 9.1 °F 1002.6 in SSW 6.4 mph 19.3 mph 84 % 0.0 in
09:00 11.6 °F 9.2 °F 1002.6 in SSW 6.4 mph 16.1 mph 85 % 0.0 in
09:15 11.6 °F 8.9 °F 1002.9 in SSW 6.4 mph 17.7 mph 84 % 0.0 in
09:30 12.1 °F 9.3 °F 1002.9 in SW 3.2 mph 11.3 mph 83 % 0.0 in
09:45 12.5 °F 9.1 °F 1002.9 in SSW 6.4 mph 14.5 mph 80 % 0.0 in
10:00 12.7 °F 9.1 °F 1002.9 in SSW 6.4 mph 16.1 mph 79 % 0.0 in
10:15 11.9 °F 9.8 °F 1002.9 in SSW 4.8 mph 16.1 mph 87 % 0.3 in
10:30 12.2 °F 9.9 °F 1003.3 in SSW 6.4 mph 20.9 mph 86 % 0.3 in
10:45 12.1 °F 9.4 °F 1003.3 in SSW 4.8 mph 12.9 mph 84 % 0.3 in
11:00 12.4 °F 9.4 °F 1003.3 in SSW 4.8 mph 20.9 mph 82 % 0.3 in
11:15 12.3 °F 9.0 °F 1003.6 in SSW 8.0 mph 19.3 mph 80 % 0.0 in
11:30 12.9 °F 9.4 °F 1003.6 in SSW 8.0 mph 17.7 mph 79 % 0.0 in
11:45 12.5 °F 8.6 °F 1003.9 in SSW 6.4 mph 17.7 mph 77 % 0.0 in
12:00 12.5 °F 9.5 °F 1003.9 in SSW 9.7 mph 20.9 mph 82 % 0.0 in
12:15 13.1 °F 9.5 °F 1003.9 in SW 8.0 mph 20.9 mph 79 % 0.0 in
12:30 12.9 °F 9.9 °F 1004.3 in SSW 8.0 mph 24.1 mph 82 % 0.0 in
12:45 11.9 °F 10.0 °F 1004.3 in SSW 6.4 mph 20.9 mph 88 % 0.0 in
13:00 12.8 °F 10.3 °F 1004.6 in SSW 8.0 mph 24.1 mph 85 % 0.0 in
13:15 13.3 °F 9.7 °F 1004.6 in SW 8.0 mph 24.1 mph 79 % 0.0 in
13:30 12.6 °F 9.8 °F 1005.0 in SSW 4.8 mph 20.9 mph 83 % 0.0 in
13:45 12.2 °F 9.7 °F 1005.3 in SSW 8.0 mph 20.9 mph 85 % 0.3 in
14:00 12.5 °F 9.5 °F 1005.3 in SSW 8.0 mph 24.1 mph 82 % 0.3 in
14:15 13.1 °F 9.5 °F 1005.6 in SSW 8.0 mph 25.7 mph 79 % 0.3 in
14:30 13.0 °F 9.4 °F 1005.6 in SSW 8.0 mph 25.7 mph 79 % 0.3 in
14:45 13.2 °F 9.2 °F 1006.0 in SSW 9.7 mph 25.7 mph 77 % 0.0 in
15:00 13.2 °F 9.3 °F 1006.0 in SW 6.4 mph 16.1 mph 77 % 0.0 in
15:15 12.7 °F 9.4 °F 1006.3 in SW 9.7 mph 22.5 mph 80 % 0.0 in
15:30 12.9 °F 9.5 °F 1006.3 in SW 4.8 mph 14.5 mph 80 % 0.0 in
15:45 12.9 °F 9.0 °F 1006.3 in SSW 8.0 mph 24.1 mph 77 % 0.0 in
16:00 13.1 °F 9.2 °F 1006.7 in SSW 8.0 mph 22.5 mph 77 % 0.0 in
16:15 12.9 °F 9.0 °F 1006.7 in SSW 8.0 mph 22.5 mph 77 % 0.0 in
16:30 12.8 °F 9.3 °F 1007.0 in SW 4.8 mph 19.3 mph 79 % 0.0 in
16:45 13.4 °F 9.2 °F 1007.0 in SSW 6.4 mph 16.1 mph 76 % 0.0 in
17:00 13.4 °F 9.1 °F 1007.0 in SSW 9.7 mph 24.1 mph 75 % 0.0 in
17:15 13.8 °F 9.1 °F 1007.0 in SSW 8.0 mph 20.9 mph 73 % 0.0 in
17:30 14.1 °F 8.7 °F 1007.3 in SSW 6.4 mph 20.9 mph 70 % 0.0 in
17:45 14.1 °F 8.7 °F 1007.3 in SSW 8.0 mph 22.5 mph 70 % 0.0 in
18:00 13.6 °F 9.0 °F 1007.7 in SSW 6.4 mph 12.9 mph 74 % 0.0 in
18:15 13.7 °F 8.9 °F 1007.7 in SSW 6.4 mph 19.3 mph 73 % 0.0 in
18:30 13.9 °F 9.4 °F 1007.7 in SSW 6.4 mph 16.1 mph 74 % 0.0 in
18:45 14.2 °F 9.4 °F 1007.7 in SSW 6.4 mph 17.7 mph 73 % 0.0 in
19:00 14.7 °F 9.1 °F 1008.0 in SSW 6.4 mph 19.3 mph 69 % 0.0 in
19:15 14.9 °F 8.8 °F 1008.0 in SW 3.2 mph 12.9 mph 67 % 0.0 in
19:30 14.9 °F 8.8 °F 1008.0 in SW 6.4 mph 16.1 mph 67 % 0.0 in
19:45 14.6 °F 8.7 °F 1008.0 in SSW 6.4 mph 20.9 mph 68 % 0.0 in
20:00 14.7 °F 8.6 °F 1008.0 in SW 8.0 mph 22.5 mph 67 % 0.0 in
20:15 14.8 °F 8.5 °F 1008.4 in SW 4.8 mph 19.3 mph 66 % 0.0 in
20:30 14.4 °F 8.6 °F 1008.4 in SSW 6.4 mph 16.1 mph 68 % 0.0 in
20:45 14.2 °F 8.4 °F 1008.4 in SSW 4.8 mph 17.7 mph 68 % 0.0 in
21:00 14.0 °F 8.4 °F 1008.4 in SSW 6.4 mph 20.9 mph 69 % 0.0 in
21:15 13.8 °F 8.5 °F 1008.7 in SSW 4.8 mph 14.5 mph 70 % 0.0 in
21:30 13.7 °F 8.3 °F 1008.7 in SW 3.2 mph 11.3 mph 70 % 0.0 in
21:45 13.5 °F 8.8 °F 1009.0 in SSW 3.2 mph 11.3 mph 73 % 0.0 in
22:00 13.2 °F 8.9 °F 1009.0 in SW 3.2 mph 8.0 mph 75 % 0.0 in
22:15 12.9 °F 9.0 °F 1009.0 in SSW 1.6 mph 6.4 mph 77 % 0.0 in
22:30 12.6 °F 8.8 °F 1009.4 in SSW 1.6 mph 8.0 mph 78 % 0.0 in
22:45 12.2 °F 8.9 °F 1009.4 in SSW 3.2 mph 9.7 mph 80 % 0.0 in
23:00 11.9 °F 8.7 °F 1009.4 in SW 1.6 mph 8.0 mph 81 % 0.0 in
23:15 11.6 °F 8.8 °F 1009.4 in Calm   4.8 mph 83 % 0.0 in
23:30 11.1 °F 8.5 °F 1009.4 in Calm   4.8 mph 84 % 0.0 in
23:45 10.8 °F 8.5 °F 1009.7 in Calm   4.8 mph 86 % 0.0 in
Esan sääasema
Terveisin Weather Underground - 2.75 mb

Alkuperäinen skripti  Jim McMurry - jmcmurry@mwt.net Sovitettu myös templatelle  Wim van der Kuil - Leuven-Template.eu

Laitteet joita käytämme:

Sääasema
Davis VP2

Sääasemaohjelma
Cumulus

Sääaseman tietokone
Asus EeePC

Palveluntarjoaja
Suncomet

Davis VP2

Cumulus

Asus EeePC

Suncomet